createdAt,value
2023-04-26T16:55:24.560Z,100673.78
2023-04-26T16:57:51.204Z,100676.09
2023-04-26T17:00:18.117Z,100679.88
2023-04-26T17:02:44.870Z,100689.53
2023-04-26T17:05:12.115Z,100684.44
2023-04-26T17:07:38.835Z,100686.94
2023-04-26T17:10:05.964Z,100677.47
2023-04-26T17:12:32.812Z,100681.91
2023-04-26T17:14:59.671Z,100673.50
2023-04-26T17:17:27.670Z,100661.94
2023-04-26T17:19:54.345Z,100666.09
2023-04-26T17:22:21.476Z,100692.75
2023-04-26T17:24:48.076Z,100680.13
2023-04-26T17:27:14.658Z,100673.84
2023-04-26T17:29:41.520Z,100698.59
2023-04-26T17:32:08.208Z,100685.38
2023-04-26T17:34:34.879Z,100690.41
2023-04-26T17:37:01.537Z,100689.59
2023-04-26T17:39:28.151Z,100677.13
2023-04-26T17:41:54.723Z,100685.75
2023-04-26T17:44:21.318Z,100699.56
2023-04-26T17:46:47.882Z,100700.63
2023-04-26T17:49:14.525Z,100691.81
2023-04-26T17:51:41.310Z,100665.72
2023-04-26T17:54:08.408Z,100689.25
2023-04-26T17:56:34.949Z,100672.84
2023-04-26T17:59:03.424Z,100685.81
2023-04-26T18:01:30.620Z,100688.44
2023-04-26T18:03:57.542Z,100699.13
2023-04-26T18:06:24.287Z,100705.81
2023-04-26T18:08:50.953Z,100706.56
2023-04-26T18:11:19.819Z,100711.56
2023-04-26T18:13:47.993Z,100726.19
2023-04-26T18:16:18.117Z,100729.34
2023-04-26T18:18:44.701Z,100710.72
2023-04-26T18:21:11.861Z,100737.38
2023-04-26T18:23:38.546Z,100736.38
2023-04-26T18:26:05.183Z,100734.09
2023-04-26T18:28:31.795Z,100738.69
2023-04-26T18:30:58.935Z,100739.53
2023-04-26T18:33:26.878Z,100737.94
2023-04-26T18:35:53.479Z,100742.69
2023-04-26T18:38:20.983Z,100736.97
2023-04-26T18:40:48.058Z,100746.22
2023-04-26T18:43:14.725Z,100747.69
2023-04-26T18:45:41.701Z,100740.97
2023-04-26T18:48:08.511Z,100750.59
2023-04-26T18:50:35.653Z,100763.72
2023-04-26T18:53:02.562Z,100729.78
2023-04-26T18:55:29.316Z,100752.63
2023-04-26T18:57:56.257Z,100765.84
2023-04-26T19:00:22.958Z,100772.94
2023-04-26T19:02:51.117Z,100761.50
2023-04-26T19:05:18.435Z,100774.72
2023-04-26T19:07:45.669Z,100779.84
2023-04-26T19:10:12.304Z,100781.69
2023-04-26T19:12:39.980Z,100790.88
2023-04-26T19:15:07.311Z,100787.75
2023-04-26T19:17:37.378Z,100787.69
2023-04-26T19:20:08.202Z,100786.97
2023-04-26T19:22:36.074Z,100800.22
2023-04-26T19:25:03.962Z,100799.72
2023-04-26T19:27:36.960Z,100814.44
2023-04-26T19:30:03.689Z,100819.34
2023-04-26T19:32:30.222Z,100830.72
2023-04-26T19:34:56.827Z,100829.91
2023-04-26T19:37:23.371Z,100855.16
2023-04-26T19:39:49.957Z,100845.47
2023-04-26T19:42:16.675Z,100838.06
2023-04-26T19:44:43.301Z,100854.66
2023-04-26T19:47:10.007Z,100841.19
2023-04-26T19:49:36.858Z,100854.56
2023-04-26T19:52:03.561Z,100851.34
2023-04-26T19:54:30.709Z,100853.56
2023-04-26T19:56:57.638Z,100861.19
2023-04-26T19:59:24.266Z,100856.75
2023-04-26T20:01:53.218Z,100846.09
2023-04-26T20:04:20.774Z,100861.47
2023-04-26T20:06:47.481Z,100856.38
2023-04-26T20:09:14.116Z,100855.03
2023-04-26T20:11:40.735Z,100859.75
2023-04-26T20:14:07.307Z,100869.22
2023-04-26T20:16:34.055Z,100872.59
2023-04-26T20:19:01.402Z,100875.66
2023-04-26T20:21:29.063Z,100853.63
2023-04-26T20:23:56.005Z,100871.09
2023-04-26T20:26:22.781Z,100853.63
2023-04-26T20:28:49.727Z,100881.53
2023-04-26T20:31:16.311Z,100873.41
2023-04-26T20:33:43.138Z,100856.31
2023-04-26T20:36:11.337Z,100880.34
2023-04-26T20:38:39.061Z,100891.00
2023-04-26T20:41:06.076Z,100887.31
2023-04-26T20:43:33.068Z,100898.13
2023-04-26T20:45:59.830Z,100901.81
2023-04-26T20:48:26.437Z,100899.94
2023-04-26T20:50:57.099Z,100889.09
2023-04-26T20:53:23.721Z,100902.94
2023-04-26T20:55:52.926Z,100887.69
2023-04-26T20:58:20.026Z,100899.00
2023-04-26T21:00:54.014Z,100906.91
2023-04-26T21:03:20.824Z,100908.56
2023-04-26T21:05:47.511Z,100905.34
2023-04-26T21:08:15.066Z,100906.63
2023-04-26T21:10:41.672Z,100906.44
2023-04-26T21:13:08.306Z,100904.28
2023-04-26T21:15:35.020Z,100900.69
2023-04-26T21:18:01.958Z,100909.69
2023-04-26T21:20:28.705Z,100893.09
2023-04-26T21:22:55.350Z,100905.28
2023-04-26T21:25:22.743Z,100907.22
2023-04-26T21:27:51.360Z,100904.78
2023-04-26T21:30:18.214Z,100901.69
2023-04-26T21:32:44.808Z,100912.47
2023-04-26T21:35:11.569Z,100916.19
2023-04-26T21:37:38.202Z,100924.81
2023-04-26T21:40:05.334Z,100908.22
2023-04-26T21:42:32.102Z,100914.47
2023-04-26T21:44:58.668Z,100913.84
2023-04-26T21:47:25.458Z,100916.97
2023-04-26T21:49:52.165Z,100923.66
2023-04-26T21:52:18.951Z,100919.88
2023-04-26T21:54:45.847Z,100919.44
2023-04-26T21:57:12.516Z,100923.28
2023-04-26T21:59:42.161Z,100927.81
2023-04-26T22:02:08.935Z,100928.81
2023-04-26T22:04:35.572Z,100925.97
2023-04-26T22:07:02.126Z,100934.44
2023-04-26T22:09:28.915Z,100935.06
2023-04-26T22:11:55.504Z,100933.59
2023-04-26T22:14:22.061Z,100928.56
2023-04-26T22:16:48.801Z,100936.44
2023-04-26T22:19:15.639Z,100919.25
2023-04-26T22:21:42.215Z,100925.72
2023-04-26T22:24:09.120Z,100926.75
2023-04-26T22:26:36.144Z,100919.72
2023-04-26T22:29:02.800Z,100923.25
2023-04-26T22:31:29.673Z,100911.13
2023-04-26T22:33:56.283Z,100913.97
2023-04-26T22:36:24.062Z,100938.66
2023-04-26T22:38:50.730Z,100934.13
2023-04-26T22:41:17.329Z,100947.75
2023-04-26T22:43:44.722Z,100936.00
2023-04-26T22:46:11.645Z,100946.47
2023-04-26T22:48:38.288Z,100947.50
2023-04-26T22:51:05.066Z,100936.00
2023-04-26T22:53:31.682Z,100936.72
2023-04-26T22:55:58.241Z,100942.91
2023-04-26T22:58:24.850Z,100947.91
2023-04-26T23:00:51.487Z,100948.63
2023-04-26T23:03:18.126Z,100970.03
2023-04-26T23:05:45.564Z,100969.81
2023-04-26T23:08:12.141Z,100964.75
2023-04-26T23:10:39.988Z,100972.22
2023-04-26T23:13:06.593Z,100976.59
2023-04-26T23:15:34.115Z,100983.88
2023-04-26T23:18:00.923Z,100965.72
2023-04-26T23:20:27.556Z,100968.78
2023-04-26T23:22:54.188Z,100981.75
2023-04-26T23:25:20.905Z,100983.06
2023-04-26T23:27:47.535Z,100973.56
2023-04-26T23:30:14.684Z,100980.38
2023-04-26T23:32:41.509Z,100968.00
2023-04-26T23:35:08.650Z,100974.97
2023-04-26T23:37:35.271Z,100974.84
2023-04-26T23:40:02.016Z,100967.94
2023-04-26T23:42:28.697Z,100963.72
2023-04-26T23:44:55.480Z,100957.84
2023-04-26T23:47:22.037Z,100962.00
2023-04-26T23:49:48.602Z,100964.81
2023-04-26T23:52:15.399Z,100962.41
2023-04-26T23:54:41.988Z,100951.94
2023-04-26T23:57:09.223Z,100950.41
2023-04-26T23:59:35.943Z,100970.59
